sensor_id;sensor_type;location;lat;lon;timestamp;P1;durP1;ratioP1;P2;durP2;ratioP2
3901;SDS011;1966;49.908;9.156;2022-12-24T00:03:25;7.17;;;3.40;;
3901;SDS011;1966;49.908;9.156;2022-12-24T00:08:45;12.63;;;3.40;;
3901;SDS011;1966;49.908;9.156;2022-12-24T00:14:04;13.13;;;3.60;;
3901;SDS011;1966;49.908;9.156;2022-12-24T00:19:25;6.37;;;2.67;;
3901;SDS011;1966;49.908;9.156;2022-12-24T00:24:45;6.90;;;2.80;;
3901;SDS011;1966;49.908;9.156;2022-12-24T00:30:05;11.30;;;3.13;;
3901;SDS011;1966;49.908;9.156;2022-12-24T00:35:26;10.97;;;3.67;;
3901;SDS011;1966;49.908;9.156;2022-12-24T00:40:46;9.43;;;2.73;;
3901;SDS011;1966;49.908;9.156;2022-12-24T00:46:06;8.13;;;3.37;;
3901;SDS011;1966;49.908;9.156;2022-12-24T00:51:27;9.73;;;3.40;;
3901;SDS011;1966;49.908;9.156;2022-12-24T00:56:47;10.23;;;4.10;;
3901;SDS011;1966;49.908;9.156;2022-12-24T01:02:06;8.43;;;3.10;;
3901;SDS011;1966;49.908;9.156;2022-12-24T01:07:27;8.63;;;2.93;;
3901;SDS011;1966;49.908;9.156;2022-12-24T01:12:47;8.10;;;2.97;;
3901;SDS011;1966;49.908;9.156;2022-12-24T01:18:06;11.50;;;3.30;;
3901;SDS011;1966;49.908;9.156;2022-12-24T01:23:27;15.03;;;3.40;;
3901;SDS011;1966;49.908;9.156;2022-12-24T01:28:47;9.40;;;2.60;;
3901;SDS011;1966;49.908;9.156;2022-12-24T01:34:06;3.70;;;2.10;;
3901;SDS011;1966;49.908;9.156;2022-12-24T01:39:27;12.67;;;2.73;;
3901;SDS011;1966;49.908;9.156;2022-12-24T01:44:47;8.23;;;3.13;;
3901;SDS011;1966;49.908;9.156;2022-12-24T01:50:11;4.10;;;2.60;;
3901;SDS011;1966;49.908;9.156;2022-12-24T01:55:35;10.10;;;3.10;;
3901;SDS011;1966;49.908;9.156;2022-12-24T02:00:54;8.63;;;3.10;;
3901;SDS011;1966;49.908;9.156;2022-12-24T02:06:14;9.53;;;3.07;;
3901;SDS011;1966;49.908;9.156;2022-12-24T02:11:37;6.77;;;3.13;;
3901;SDS011;1966;49.908;9.156;2022-12-24T02:16:59;8.20;;;3.60;;
3901;SDS011;1966;49.908;9.156;2022-12-24T02:22:20;13.80;;;3.77;;
3901;SDS011;1966;49.908;9.156;2022-12-24T02:27:49;15.03;;;2.87;;
3901;SDS011;1966;49.908;9.156;2022-12-24T02:33:16;6.60;;;2.67;;
3901;SDS011;1966;49.908;9.156;2022-12-24T02:38:38;7.67;;;2.40;;
3901;SDS011;1966;49.908;9.156;2022-12-24T02:43:59;10.97;;;3.27;;
3901;SDS011;1966;49.908;9.156;2022-12-24T02:49:21;7.73;;;3.10;;
3901;SDS011;1966;49.908;9.156;2022-12-24T02:54:43;11.70;;;3.20;;
3901;SDS011;1966;49.908;9.156;2022-12-24T03:00:04;5.17;;;2.67;;
3901;SDS011;1966;49.908;9.156;2022-12-24T03:05:27;9.83;;;3.17;;
3901;SDS011;1966;49.908;9.156;2022-12-24T03:10:51;11.13;;;2.60;;
3901;SDS011;1966;49.908;9.156;2022-12-24T03:16:14;9.03;;;2.80;;
3901;SDS011;1966;49.908;9.156;2022-12-24T03:21:37;11.37;;;2.77;;
3901;SDS011;1966;49.908;9.156;2022-12-24T03:26:59;12.50;;;3.40;;
3901;SDS011;1966;49.908;9.156;2022-12-24T03:32:22;13.40;;;2.90;;
3901;SDS011;1966;49.908;9.156;2022-12-24T03:37:43;11.33;;;2.97;;
3901;SDS011;1966;49.908;9.156;2022-12-24T03:43:03;14.53;;;3.43;;
3901;SDS011;1966;49.908;9.156;2022-12-24T03:48:22;10.00;;;2.90;;
3901;SDS011;1966;49.908;9.156;2022-12-24T03:53:43;19.87;;;3.50;;
3901;SDS011;1966;49.908;9.156;2022-12-24T03:59:03;7.83;;;2.70;;
3901;SDS011;1966;49.908;9.156;2022-12-24T04:04:23;10.93;;;2.57;;
3901;SDS011;1966;49.908;9.156;2022-12-24T04:09:43;9.70;;;3.27;;
3901;SDS011;1966;49.908;9.156;2022-12-24T04:15:03;9.10;;;2.90;;
3901;SDS011;1966;49.908;9.156;2022-12-24T04:20:23;11.63;;;2.63;;
3901;SDS011;1966;49.908;9.156;2022-12-24T04:25:44;8.03;;;2.73;;
3901;SDS011;1966;49.908;9.156;2022-12-24T04:31:04;11.50;;;2.87;;
3901;SDS011;1966;49.908;9.156;2022-12-24T04:36:24;10.60;;;2.63;;
3901;SDS011;1966;49.908;9.156;2022-12-24T04:41:45;8.90;;;2.90;;
3901;SDS011;1966;49.908;9.156;2022-12-24T04:47:05;9.63;;;3.03;;
3901;SDS011;1966;49.908;9.156;2022-12-24T04:52:24;6.60;;;2.53;;
3901;SDS011;1966;49.908;9.156;2022-12-24T04:57:45;6.60;;;2.50;;
3901;SDS011;1966;49.908;9.156;2022-12-24T05:03:05;8.60;;;3.50;;
3901;SDS011;1966;49.908;9.156;2022-12-24T05:08:24;10.73;;;3.80;;
3901;SDS011;1966;49.908;9.156;2022-12-24T05:13:45;15.50;;;4.23;;
3901;SDS011;1966;49.908;9.156;2022-12-24T05:19:05;8.13;;;2.53;;
3901;SDS011;1966;49.908;9.156;2022-12-24T05:24:24;6.80;;;2.70;;
3901;SDS011;1966;49.908;9.156;2022-12-24T05:30:03;13.73;;;3.30;;
3901;SDS011;1966;49.908;9.156;2022-12-24T05:35:23;7.03;;;2.60;;
3901;SDS011;1966;49.908;9.156;2022-12-24T05:40:42;11.00;;;2.87;;
3901;SDS011;1966;49.908;9.156;2022-12-24T05:46:04;10.13;;;2.80;;
3901;SDS011;1966;49.908;9.156;2022-12-24T05:51:24;12.07;;;3.47;;
3901;SDS011;1966;49.908;9.156;2022-12-24T05:56:44;10.77;;;2.80;;
3901;SDS011;1966;49.908;9.156;2022-12-24T06:02:05;13.00;;;3.33;;
3901;SDS011;1966;49.908;9.156;2022-12-24T06:07:24;14.90;;;4.20;;
3901;SDS011;1966;49.908;9.156;2022-12-24T06:12:44;11.47;;;4.90;;
3901;SDS011;1966;49.908;9.156;2022-12-24T06:18:05;14.40;;;3.77;;
3901;SDS011;1966;49.908;9.156;2022-12-24T06:23:25;9.70;;;3.60;;
3901;SDS011;1966;49.908;9.156;2022-12-24T06:28:45;15.53;;;4.43;;
3901;SDS011;1966;49.908;9.156;2022-12-24T06:34:07;17.33;;;4.27;;
3901;SDS011;1966;49.908;9.156;2022-12-24T06:39:26;11.77;;;4.13;;
3901;SDS011;1966;49.908;9.156;2022-12-24T06:44:46;14.27;;;4.30;;
3901;SDS011;1966;49.908;9.156;2022-12-24T06:50:07;14.83;;;3.43;;
3901;SDS011;1966;49.908;9.156;2022-12-24T06:55:27;12.83;;;3.70;;
3901;SDS011;1966;49.908;9.156;2022-12-24T07:00:47;13.87;;;4.00;;
3901;SDS011;1966;49.908;9.156;2022-12-24T07:06:08;12.00;;;3.60;;
3901;SDS011;1966;49.908;9.156;2022-12-24T07:11:29;16.20;;;3.90;;
3901;SDS011;1966;49.908;9.156;2022-12-24T07:16:49;11.97;;;3.20;;
3901;SDS011;1966;49.908;9.156;2022-12-24T07:22:10;12.97;;;4.37;;
3901;SDS011;1966;49.908;9.156;2022-12-24T07:27:29;12.33;;;3.63;;
3901;SDS011;1966;49.908;9.156;2022-12-24T07:32:49;9.43;;;3.50;;
3901;SDS011;1966;49.908;9.156;2022-12-24T07:38:10;13.27;;;3.80;;
3901;SDS011;1966;49.908;9.156;2022-12-24T07:43:31;13.37;;;3.80;;
3901;SDS011;1966;49.908;9.156;2022-12-24T07:48:51;14.43;;;4.20;;
3901;SDS011;1966;49.908;9.156;2022-12-24T07:54:12;13.27;;;3.60;;
3901;SDS011;1966;49.908;9.156;2022-12-24T07:59:31;14.33;;;4.53;;
3901;SDS011;1966;49.908;9.156;2022-12-24T08:04:51;12.83;;;3.80;;
3901;SDS011;1966;49.908;9.156;2022-12-24T08:10:12;18.40;;;4.03;;
3901;SDS011;1966;49.908;9.156;2022-12-24T08:15:31;15.70;;;4.33;;
3901;SDS011;1966;49.908;9.156;2022-12-24T08:20:51;11.00;;;3.90;;
3901;SDS011;1966;49.908;9.156;2022-12-24T08:26:12;16.90;;;3.80;;
3901;SDS011;1966;49.908;9.156;2022-12-24T08:31:31;17.33;;;3.23;;
3901;SDS011;1966;49.908;9.156;2022-12-24T08:36:53;10.90;;;4.20;;
3901;SDS011;1966;49.908;9.156;2022-12-24T08:42:14;12.30;;;3.90;;
3901;SDS011;1966;49.908;9.156;2022-12-24T08:47:34;17.47;;;4.53;;
3901;SDS011;1966;49.908;9.156;2022-12-24T08:52:53;19.63;;;4.50;;
3901;SDS011;1966;49.908;9.156;2022-12-24T08:58:14;20.10;;;4.90;;
3901;SDS011;1966;49.908;9.156;2022-12-24T09:03:34;13.10;;;4.53;;
3901;SDS011;1966;49.908;9.156;2022-12-24T09:08:53;20.87;;;4.73;;
3901;SDS011;1966;49.908;9.156;2022-12-24T09:14:14;13.33;;;3.80;;
3901;SDS011;1966;49.908;9.156;2022-12-24T09:19:34;21.57;;;4.70;;
3901;SDS011;1966;49.908;9.156;2022-12-24T09:24:54;22.17;;;4.40;;
3901;SDS011;1966;49.908;9.156;2022-12-24T09:30:15;14.80;;;4.10;;
3901;SDS011;1966;49.908;9.156;2022-12-24T09:35:36;20.03;;;4.77;;
3901;SDS011;1966;49.908;9.156;2022-12-24T09:40:56;16.43;;;5.60;;
3901;SDS011;1966;49.908;9.156;2022-12-24T09:46:20;16.23;;;3.80;;
3901;SDS011;1966;49.908;9.156;2022-12-24T09:51:41;14.00;;;4.97;;
3901;SDS011;1966;49.908;9.156;2022-12-24T09:57:04;18.27;;;4.60;;
3901;SDS011;1966;49.908;9.156;2022-12-24T10:02:26;14.63;;;4.53;;
3901;SDS011;1966;49.908;9.156;2022-12-24T10:07:47;21.90;;;4.80;;
3901;SDS011;1966;49.908;9.156;2022-12-24T10:13:10;17.57;;;4.33;;
3901;SDS011;1966;49.908;9.156;2022-12-24T10:18:34;22.70;;;6.60;;
3901;SDS011;1966;49.908;9.156;2022-12-24T10:23:58;25.07;;;4.90;;
3901;SDS011;1966;49.908;9.156;2022-12-24T10:29:20;22.63;;;5.00;;
3901;SDS011;1966;49.908;9.156;2022-12-24T10:34:44;21.73;;;5.80;;
3901;SDS011;1966;49.908;9.156;2022-12-24T10:40:04;17.77;;;5.50;;
3901;SDS011;1966;49.908;9.156;2022-12-24T10:45:26;25.10;;;5.70;;
3901;SDS011;1966;49.908;9.156;2022-12-24T10:50:52;20.27;;;4.20;;
3901;SDS011;1966;49.908;9.156;2022-12-24T10:56:14;10.50;;;3.80;;
3901;SDS011;1966;49.908;9.156;2022-12-24T11:01:44;19.20;;;5.00;;
3901;SDS011;1966;49.908;9.156;2022-12-24T11:07:05;18.80;;;5.10;;
3901;SDS011;1966;49.908;9.156;2022-12-24T11:12:25;17.47;;;4.17;;
3901;SDS011;1966;49.908;9.156;2022-12-24T11:17:51;12.27;;;3.97;;
3901;SDS011;1966;49.908;9.156;2022-12-24T11:23:13;17.37;;;4.60;;
3901;SDS011;1966;49.908;9.156;2022-12-24T11:28:34;18.53;;;5.47;;
3901;SDS011;1966;49.908;9.156;2022-12-24T11:33:54;14.83;;;4.17;;
3901;SDS011;1966;49.908;9.156;2022-12-24T11:39:18;18.23;;;4.37;;
3901;SDS011;1966;49.908;9.156;2022-12-24T11:44:39;15.63;;;3.80;;
3901;SDS011;1966;49.908;9.156;2022-12-24T11:50:17;22.67;;;4.80;;
3901;SDS011;1966;49.908;9.156;2022-12-24T11:55:41;18.23;;;4.80;;
3901;SDS011;1966;49.908;9.156;2022-12-24T12:01:08;17.93;;;4.73;;
3901;SDS011;1966;49.908;9.156;2022-12-24T12:06:30;13.73;;;4.50;;
3901;SDS011;1966;49.908;9.156;2022-12-24T12:11:54;19.53;;;5.60;;
3901;SDS011;1966;49.908;9.156;2022-12-24T12:17:17;12.00;;;4.60;;
3901;SDS011;1966;49.908;9.156;2022-12-24T12:22:44;10.03;;;3.63;;
3901;SDS011;1966;49.908;9.156;2022-12-24T12:28:10;25.60;;;5.13;;
3901;SDS011;1966;49.908;9.156;2022-12-24T12:33:35;21.43;;;5.47;;
3901;SDS011;1966;49.908;9.156;2022-12-24T12:38:57;18.57;;;4.40;;
3901;SDS011;1966;49.908;9.156;2022-12-24T12:44:21;22.80;;;5.00;;
3901;SDS011;1966;49.908;9.156;2022-12-24T12:49:44;20.57;;;6.03;;
3901;SDS011;1966;49.908;9.156;2022-12-24T12:55:14;15.43;;;4.50;;
3901;SDS011;1966;49.908;9.156;2022-12-24T13:00:37;15.30;;;5.90;;
3901;SDS011;1966;49.908;9.156;2022-12-24T13:06:05;17.40;;;4.67;;
3901;SDS011;1966;49.908;9.156;2022-12-24T13:11:34;14.10;;;4.37;;
3901;SDS011;1966;49.908;9.156;2022-12-24T13:17:03;13.53;;;4.80;;
3901;SDS011;1966;49.908;9.156;2022-12-24T13:22:26;15.23;;;5.40;;
3901;SDS011;1966;49.908;9.156;2022-12-24T13:27:46;10.50;;;4.20;;
3901;SDS011;1966;49.908;9.156;2022-12-24T13:33:09;14.63;;;5.70;;
3901;SDS011;1966;49.908;9.156;2022-12-24T13:38:34;14.53;;;4.67;;
3901;SDS011;1966;49.908;9.156;2022-12-24T13:44:00;17.67;;;4.70;;
3901;SDS011;1966;49.908;9.156;2022-12-24T13:49:28;11.40;;;4.30;;
3901;SDS011;1966;49.908;9.156;2022-12-24T13:54:58;13.00;;;4.20;;
3901;SDS011;1966;49.908;9.156;2022-12-24T14:00:23;15.50;;;4.23;;
3901;SDS011;1966;49.908;9.156;2022-12-24T14:05:46;16.27;;;5.90;;
3901;SDS011;1966;49.908;9.156;2022-12-24T14:11:10;17.50;;;7.80;;
3901;SDS011;1966;49.908;9.156;2022-12-24T14:16:30;25.60;;;18.40;;
3901;SDS011;1966;49.908;9.156;2022-12-24T14:21:56;11.37;;;4.80;;
3901;SDS011;1966;49.908;9.156;2022-12-24T14:27:18;13.23;;;6.87;;
3901;SDS011;1966;49.908;9.156;2022-12-24T14:32:39;12.40;;;7.27;;
3901;SDS011;1966;49.908;9.156;2022-12-24T14:38:01;17.97;;;8.50;;
3901;SDS011;1966;49.908;9.156;2022-12-24T14:43:23;18.10;;;8.20;;
3901;SDS011;1966;49.908;9.156;2022-12-24T14:48:44;22.43;;;7.97;;
3901;SDS011;1966;49.908;9.156;2022-12-24T14:54:21;25.53;;;11.90;;
3901;SDS011;1966;49.908;9.156;2022-12-24T14:59:45;28.83;;;13.67;;
3901;SDS011;1966;49.908;9.156;2022-12-24T15:05:08;28.00;;;10.70;;
3901;SDS011;1966;49.908;9.156;2022-12-24T15:10:31;25.10;;;10.40;;
3901;SDS011;1966;49.908;9.156;2022-12-24T15:15:52;17.20;;;9.73;;
3901;SDS011;1966;49.908;9.156;2022-12-24T15:21:14;19.63;;;7.40;;
3901;SDS011;1966;49.908;9.156;2022-12-24T15:31:57;16.00;;;5.43;;
3901;SDS011;1966;49.908;9.156;2022-12-24T15:37:18;13.30;;;7.47;;
3901;SDS011;1966;49.908;9.156;2022-12-24T15:42:45;28.17;;;7.07;;
3901;SDS011;1966;49.908;9.156;2022-12-24T15:48:07;18.70;;;6.80;;
3901;SDS011;1966;49.908;9.156;2022-12-24T15:53:28;16.93;;;6.10;;
3901;SDS011;1966;49.908;9.156;2022-12-24T15:58:49;15.93;;;7.63;;
3901;SDS011;1966;49.908;9.156;2022-12-24T16:04:13;29.80;;;14.03;;
3901;SDS011;1966;49.908;9.156;2022-12-24T16:09:40;22.07;;;7.77;;
3901;SDS011;1966;49.908;9.156;2022-12-24T16:15:00;13.00;;;6.80;;
3901;SDS011;1966;49.908;9.156;2022-12-24T16:20:21;18.37;;;7.40;;
3901;SDS011;1966;49.908;9.156;2022-12-24T16:25:41;14.93;;;8.90;;
3901;SDS011;1966;49.908;9.156;2022-12-24T16:31:00;18.17;;;9.53;;
3901;SDS011;1966;49.908;9.156;2022-12-24T16:36:21;18.07;;;10.50;;
3901;SDS011;1966;49.908;9.156;2022-12-24T16:41:41;16.60;;;8.13;;
3901;SDS011;1966;49.908;9.156;2022-12-24T16:47:20;21.93;;;12.40;;
3901;SDS011;1966;49.908;9.156;2022-12-24T16:52:41;19.90;;;10.43;;
3901;SDS011;1966;49.908;9.156;2022-12-24T16:58:00;14.50;;;9.00;;
3901;SDS011;1966;49.908;9.156;2022-12-24T17:03:20;18.67;;;7.80;;
3901;SDS011;1966;49.908;9.156;2022-12-24T17:08:41;15.80;;;7.43;;
3901;SDS011;1966;49.908;9.156;2022-12-24T17:14:01;17.70;;;10.00;;
3901;SDS011;1966;49.908;9.156;2022-12-24T17:19:21;14.90;;;8.23;;
3901;SDS011;1966;49.908;9.156;2022-12-24T17:24:42;19.80;;;7.70;;
3901;SDS011;1966;49.908;9.156;2022-12-24T17:30:01;14.93;;;8.37;;
3901;SDS011;1966;49.908;9.156;2022-12-24T17:35:21;22.50;;;13.47;;
3901;SDS011;1966;49.908;9.156;2022-12-24T17:40:42;18.17;;;8.60;;
3901;SDS011;1966;49.908;9.156;2022-12-24T17:46:02;18.33;;;8.77;;
3901;SDS011;1966;49.908;9.156;2022-12-24T17:51:22;16.30;;;6.13;;
3901;SDS011;1966;49.908;9.156;2022-12-24T17:56:43;10.80;;;4.20;;
3901;SDS011;1966;49.908;9.156;2022-12-24T18:02:03;12.20;;;7.67;;
3901;SDS011;1966;49.908;9.156;2022-12-24T18:07:22;22.63;;;10.80;;
3901;SDS011;1966;49.908;9.156;2022-12-24T18:12:44;26.50;;;10.83;;
3901;SDS011;1966;49.908;9.156;2022-12-24T18:18:04;18.87;;;9.30;;
3901;SDS011;1966;49.908;9.156;2022-12-24T18:23:24;19.40;;;11.17;;
3901;SDS011;1966;49.908;9.156;2022-12-24T18:28:45;20.73;;;12.17;;
3901;SDS011;1966;49.908;9.156;2022-12-24T18:34:06;18.23;;;10.27;;
3901;SDS011;1966;49.908;9.156;2022-12-24T18:39:25;22.03;;;9.70;;
3901;SDS011;1966;49.908;9.156;2022-12-24T18:44:46;18.33;;;8.80;;
3901;SDS011;1966;49.908;9.156;2022-12-24T18:50:06;19.43;;;9.77;;
3901;SDS011;1966;49.908;9.156;2022-12-24T18:55:26;19.23;;;10.57;;
3901;SDS011;1966;49.908;9.156;2022-12-24T19:00:47;16.03;;;10.00;;
3901;SDS011;1966;49.908;9.156;2022-12-24T19:06:07;20.27;;;10.33;;
3901;SDS011;1966;49.908;9.156;2022-12-24T19:11:27;21.20;;;10.40;;
3901;SDS011;1966;49.908;9.156;2022-12-24T19:16:48;17.93;;;10.37;;
3901;SDS011;1966;49.908;9.156;2022-12-24T19:22:08;18.40;;;10.30;;
3901;SDS011;1966;49.908;9.156;2022-12-24T19:27:28;15.43;;;9.90;;
3901;SDS011;1966;49.908;9.156;2022-12-24T19:32:49;21.50;;;10.40;;
3901;SDS011;1966;49.908;9.156;2022-12-24T19:38:08;16.13;;;10.60;;
3901;SDS011;1966;49.908;9.156;2022-12-24T19:43:28;16.73;;;9.97;;
3901;SDS011;1966;49.908;9.156;2022-12-24T19:48:49;17.83;;;11.17;;
3901;SDS011;1966;49.908;9.156;2022-12-24T19:54:09;20.70;;;12.00;;
3901;SDS011;1966;49.908;9.156;2022-12-24T19:59:29;19.00;;;11.20;;
3901;SDS011;1966;49.908;9.156;2022-12-24T20:04:50;24.50;;;12.80;;
3901;SDS011;1966;49.908;9.156;2022-12-24T20:10:10;29.80;;;14.07;;
3901;SDS011;1966;49.908;9.156;2022-12-24T20:15:30;25.87;;;13.50;;
3901;SDS011;1966;49.908;9.156;2022-12-24T20:20:50;25.40;;;12.87;;
3901;SDS011;1966;49.908;9.156;2022-12-24T20:26:11;21.77;;;13.27;;
3901;SDS011;1966;49.908;9.156;2022-12-24T20:31:31;18.73;;;11.50;;
3901;SDS011;1966;49.908;9.156;2022-12-24T20:36:52;23.63;;;12.33;;
3901;SDS011;1966;49.908;9.156;2022-12-24T20:42:11;21.87;;;13.77;;
3901;SDS011;1966;49.908;9.156;2022-12-24T20:47:31;21.80;;;12.70;;
3901;SDS011;1966;49.908;9.156;2022-12-24T20:52:52;22.07;;;11.13;;
3901;SDS011;1966;49.908;9.156;2022-12-24T20:58:13;19.17;;;10.67;;
3901;SDS011;1966;49.908;9.156;2022-12-24T21:03:35;22.33;;;9.60;;
3901;SDS011;1966;49.908;9.156;2022-12-24T21:08:56;19.90;;;11.53;;
3901;SDS011;1966;49.908;9.156;2022-12-24T21:14:16;18.50;;;9.70;;
3901;SDS011;1966;49.908;9.156;2022-12-24T21:19:36;20.40;;;10.83;;
3901;SDS011;1966;49.908;9.156;2022-12-24T21:24:57;16.80;;;9.50;;
3901;SDS011;1966;49.908;9.156;2022-12-24T21:30:17;25.43;;;11.47;;
3901;SDS011;1966;49.908;9.156;2022-12-24T21:35:36;18.43;;;9.97;;
3901;SDS011;1966;49.908;9.156;2022-12-24T21:40:58;14.77;;;9.53;;
3901;SDS011;1966;49.908;9.156;2022-12-24T21:46:19;26.10;;;10.33;;
3901;SDS011;1966;49.908;9.156;2022-12-24T21:51:40;25.53;;;10.07;;
3901;SDS011;1966;49.908;9.156;2022-12-24T21:57:03;15.57;;;9.80;;
3901;SDS011;1966;49.908;9.156;2022-12-24T22:02:40;16.20;;;9.20;;
3901;SDS011;1966;49.908;9.156;2022-12-24T22:08:00;16.47;;;8.60;;
3901;SDS011;1966;49.908;9.156;2022-12-24T22:13:38;18.50;;;6.77;;
3901;SDS011;1966;49.908;9.156;2022-12-24T22:18:58;16.40;;;7.00;;
3901;SDS011;1966;49.908;9.156;2022-12-24T22:24:18;15.07;;;8.80;;
3901;SDS011;1966;49.908;9.156;2022-12-24T22:29:38;18.60;;;8.93;;
3901;SDS011;1966;49.908;9.156;2022-12-24T22:34:58;23.93;;;9.40;;
3901;SDS011;1966;49.908;9.156;2022-12-24T22:40:18;19.20;;;9.93;;
3901;SDS011;1966;49.908;9.156;2022-12-24T22:45:39;19.40;;;9.90;;
3901;SDS011;1966;49.908;9.156;2022-12-24T22:50:59;14.70;;;9.47;;
3901;SDS011;1966;49.908;9.156;2022-12-24T22:56:20;19.77;;;9.77;;
3901;SDS011;1966;49.908;9.156;2022-12-24T23:01:42;14.93;;;8.70;;
3901;SDS011;1966;49.908;9.156;2022-12-24T23:07:02;26.30;;;9.90;;
3901;SDS011;1966;49.908;9.156;2022-12-24T23:12:22;17.20;;;9.43;;
3901;SDS011;1966;49.908;9.156;2022-12-24T23:17:57;16.27;;;8.67;;
3901;SDS011;1966;49.908;9.156;2022-12-24T23:23:16;12.47;;;7.60;;
3901;SDS011;1966;49.908;9.156;2022-12-24T23:28:38;14.33;;;7.60;;
3901;SDS011;1966;49.908;9.156;2022-12-24T23:33:59;13.27;;;7.70;;
3901;SDS011;1966;49.908;9.156;2022-12-24T23:39:19;15.67;;;8.57;;
3901;SDS011;1966;49.908;9.156;2022-12-24T23:44:38;18.90;;;8.20;;
3901;SDS011;1966;49.908;9.156;2022-12-24T23:49:59;14.00;;;7.83;;
3901;SDS011;1966;49.908;9.156;2022-12-24T23:55:19;11.63;;;6.80;;
